New Castle Airport
KILG : rendu visible

Aérodrome :











RETROUVEZ-NOUS SUR...

 
LOGIN :

S'inscrire | Disclaimer

   EN    FR    IT 

 









Légende :    VFR   VFR Marginal   IFR   IFR Intensif   IFR Très Intensif
Visi : 
Plafond : 
>= 8 km
>= 3000ft
5 à 8 km
1000 à 3000 ft
1500m à 5 km
500 à 1000 ft
800 à 1500m
200 à 500 ft
< 800m
< 200 ft
Symboles :   Orages  Brouillard  Fortes neiges  Fortes précipitations  Vent > 20 kt






- Altitude de l'aérodrome : 80 ft
- Code IATA : ILG


KILG - New Castle

DERNIER METAR :
  • 090435Z AUTO 11003KT 10SM BKN027 OVC042 26/23 A2998 RMK AO2 T02560228

METARs EXPIRÉS :
  • 090351Z AUTO 16008KT 10SM CLR 26/23 A2997 RMK AO2 SLP146 T02560228
  • 090251Z AUTO 17012KT 10SM CLR 26/23 A2995 RMK AO2 SLP141 T02560228 50000
  • 090151Z 16010KT 10SM CLR 26/22 A2997 RMK AO2 SLP146 T02560222

TAF KILG
Valide du 09 à 00h jusqu'au 10 à 00h UTC


082320Z 0900/0924 16007KT P6SM FEW050
FM090700 VRB03KT 5SM BR SCT007
TEMPO 0909/0912 2SM BR BKN007
FM091400 VRB04KT P6SM SCT045
FIR KZDC / Amérique du Nord



MET'MAP, la Météo Aéronautique d'un coup d'oeil ! - Copyright ORBIFLY Décembre 2007 - Disclaimer

ORBIFLY MET'MAP TEAM :

Programmation & Développement : Alexandra Zaïnal
Sur une idée originale de : Baudouin d'Aumeries
Assistance à la programmation : Marc-Olivier Méhu
Soutien technique & logistique : Manuel Goepfert

Contact : metmap@orbifly.com




SOURCES & CREDITS :

   NOAA       Earth
Advisory